createdAt,value
2019-05-17T00:02:00.568Z,66.30
2019-05-17T00:04:37.233Z,65.20
2019-05-17T00:07:13.861Z,63.50
2019-05-17T00:09:50.677Z,55.52
2019-05-17T00:12:28.004Z,61.75
2019-05-17T00:15:04.410Z,66.00
2019-05-17T00:17:40.984Z,57.58
2019-05-17T00:20:17.923Z,58.75
2019-05-17T00:22:57.230Z,54.15
2019-05-17T00:25:32.586Z,53.60
2019-05-17T00:28:09.525Z,52.80
2019-05-17T00:30:47.139Z,60.52
2019-05-17T00:33:23.647Z,53.55
2019-05-17T00:36:01.172Z,53.33
2019-05-17T00:38:48.341Z,54.35
2019-05-17T00:41:17.648Z,57.33
2019-05-17T00:43:53.746Z,53.90
2019-05-17T00:46:30.371Z,57.67
2019-05-17T00:49:08.267Z,46.60
2019-05-17T00:51:47.260Z,56.05
2019-05-17T00:54:22.617Z,53.42
2019-05-17T00:56:59.588Z,51.45
2019-05-17T00:59:36.917Z,50.58
2019-05-17T01:02:16.148Z,50.03
2019-05-17T01:04:51.606Z,49.05
2019-05-17T01:07:28.407Z,45.95
2019-05-17T01:10:07.012Z,52.80
2019-05-17T01:12:43.779Z,44.23
2019-05-17T01:15:20.700Z,40.67
2019-05-17T01:17:57.400Z,43.05
2019-05-17T01:20:36.478Z,40.00
2019-05-17T01:23:12.517Z,41.73
2019-05-17T01:25:49.049Z,41.60
2019-05-17T01:28:26.946Z,50.03
2019-05-17T01:31:03.881Z,43.52
2019-05-17T01:33:40.826Z,40.25
2019-05-17T01:36:17.489Z,36.65
2019-05-17T01:38:54.265Z,40.75
2019-05-17T01:41:30.763Z,38.42
2019-05-17T01:44:07.739Z,36.17
2019-05-17T01:46:46.312Z,37.17
2019-05-17T01:49:22.067Z,35.43
2019-05-17T01:51:58.583Z,38.23
2019-05-17T01:54:36.289Z,37.10
2019-05-17T01:57:13.593Z,40.08
2019-05-17T01:59:50.049Z,33.30
2019-05-17T02:02:47.127Z,39.53
2019-05-17T02:05:23.683Z,34.45
2019-05-17T02:08:00.110Z,32.60
2019-05-17T02:10:37.548Z,33.13
2019-05-17T02:13:16.599Z,38.53
2019-05-17T02:15:53.299Z,35.13
2019-05-17T02:18:29.616Z,36.20
2019-05-17T02:21:06.765Z,31.90
2019-05-17T02:23:43.444Z,31.57
2019-05-17T02:26:19.915Z,35.35
2019-05-17T02:28:56.615Z,38.08
2019-05-17T02:31:34.570Z,31.00
2019-05-17T02:34:13.913Z,34.50
2019-05-17T02:36:53.185Z,38.65
2019-05-17T02:39:28.008Z,31.23
2019-05-17T02:42:04.215Z,34.60
2019-05-17T02:44:43.604Z,28.98
2019-05-17T02:47:19.006Z,34.08
2019-05-17T02:49:55.080Z,29.52
2019-05-17T02:52:32.866Z,32.25
2019-05-17T02:55:12.466Z,31.52
2019-05-17T02:57:47.363Z,30.70
2019-05-17T03:00:24.254Z,35.48
2019-05-17T03:03:03.203Z,32.83
2019-05-17T03:05:37.894Z,28.85
2019-05-17T03:08:14.872Z,33.90
2019-05-17T03:10:53.490Z,32.30
2019-05-17T03:13:29.127Z,33.83
2019-05-17T03:16:05.699Z,29.50
2019-05-17T03:18:43.844Z,28.83
2019-05-17T03:21:22.762Z,29.10
2019-05-17T03:23:58.185Z,30.62
2019-05-17T03:26:34.432Z,34.63
2019-05-17T03:29:13.384Z,28.90
2019-05-17T03:31:53.598Z,25.82
2019-05-17T03:34:27.481Z,29.48
2019-05-17T03:37:06.221Z,28.90
2019-05-17T03:39:42.725Z,26.23
2019-05-17T03:42:22.619Z,30.48
2019-05-17T03:45:02.620Z,35.15
2019-05-17T03:47:37.547Z,29.63
2019-05-17T03:50:14.475Z,28.05
2019-05-17T03:52:53.535Z,26.87
2019-05-17T03:55:32.765Z,32.90
2019-05-17T03:58:06.725Z,26.87
2019-05-17T04:00:43.418Z,26.50
2019-05-17T04:03:22.939Z,34.80
2019-05-17T04:05:58.154Z,30.37
2019-05-17T04:08:35.190Z,28.30
2019-05-17T04:11:22.104Z,23.55
2019-05-17T04:13:49.363Z,29.48
2019-05-17T04:16:25.866Z,27.30
2019-05-17T04:19:03.232Z,24.43
2019-05-17T04:21:42.711Z,29.10
2019-05-17T04:24:17.930Z,33.83
2019-05-17T04:26:54.181Z,32.25
2019-05-17T04:29:33.195Z,30.80
2019-05-17T04:32:09.207Z,22.13
2019-05-17T04:34:46.106Z,29.35
2019-05-17T04:37:22.889Z,27.10
2019-05-17T04:40:03.123Z,29.07
2019-05-17T04:42:37.569Z,29.42
2019-05-17T04:45:14.343Z,25.35
2019-05-17T04:47:52.847Z,27.85
2019-05-17T04:50:28.208Z,29.95
2019-05-17T04:53:04.655Z,27.37
2019-05-17T04:55:43.080Z,27.07
2019-05-17T04:58:19.151Z,26.05
2019-05-17T05:00:55.839Z,22.80
2019-05-17T05:03:32.933Z,31.50
2019-05-17T05:06:13.057Z,24.32
2019-05-17T05:08:47.500Z,23.87
2019-05-17T05:11:24.328Z,29.20
2019-05-17T05:14:02.845Z,27.10
2019-05-17T05:16:38.980Z,25.45
2019-05-17T05:19:15.338Z,26.40
2019-05-17T05:21:52.089Z,23.60
2019-05-17T05:24:31.428Z,26.48
2019-05-17T05:27:07.250Z,27.10
2019-05-17T05:29:43.724Z,27.67
2019-05-17T05:32:22.017Z,26.30
2019-05-17T05:34:58.168Z,23.52
2019-05-17T05:37:34.579Z,25.85
2019-05-17T05:40:12.625Z,25.00
2019-05-17T05:42:51.564Z,23.73
2019-05-17T05:45:27.704Z,26.48
2019-05-17T05:48:04.637Z,24.15
2019-05-17T05:50:43.107Z,25.80
2019-05-17T05:53:21.635Z,27.93
2019-05-17T05:55:56.522Z,27.48
2019-05-17T05:58:32.891Z,27.50
2019-05-17T06:01:09.363Z,23.25
2019-05-17T06:03:45.992Z,28.95
2019-05-17T06:06:23.676Z,24.07
2019-05-17T06:08:59.860Z,27.07
2019-05-17T06:11:36.532Z,24.30
2019-05-17T06:14:13.082Z,22.15
2019-05-17T06:16:51.840Z,23.00
2019-05-17T06:19:27.433Z,24.40
2019-05-17T06:22:03.700Z,23.15
2019-05-17T06:24:42.337Z,26.57
2019-05-17T06:27:17.992Z,22.98
2019-05-17T06:29:54.470Z,27.73
2019-05-17T06:32:31.674Z,23.57
2019-05-17T06:35:08.720Z,23.05
2019-05-17T06:37:45.496Z,23.07
2019-05-17T06:40:21.751Z,19.85
2019-05-17T06:42:57.864Z,22.55
2019-05-17T06:45:35.706Z,19.45
2019-05-17T06:48:12.482Z,24.40
2019-05-17T06:50:49.017Z,22.75
2019-05-17T06:53:25.673Z,26.15
2019-05-17T06:56:02.862Z,22.02
2019-05-17T06:58:38.998Z,23.02
2019-05-17T07:01:15.319Z,22.37
2019-05-17T07:03:52.006Z,28.00
2019-05-17T07:06:29.598Z,23.77
2019-05-17T07:09:09.893Z,24.85
2019-05-17T07:11:45.435Z,23.77
2019-05-17T07:14:22.011Z,23.67
2019-05-17T07:16:59.609Z,23.10
2019-05-17T07:19:36.288Z,25.27
2019-05-17T07:22:12.928Z,21.82
2019-05-17T07:24:50.260Z,19.92
2019-05-17T07:27:40.655Z,23.65
2019-05-17T07:30:05.077Z,23.83
2019-05-17T07:32:41.912Z,20.65
2019-05-17T07:35:19.807Z,23.47
2019-05-17T07:37:56.476Z,20.08
2019-05-17T07:40:33.026Z,19.87
2019-05-17T07:43:14.309Z,28.55
2019-05-17T07:45:55.774Z,24.27
2019-05-17T07:48:32.355Z,22.93
2019-05-17T07:51:10.108Z,21.00
2019-05-17T07:53:49.306Z,21.65
2019-05-17T07:56:24.698Z,22.27
2019-05-17T07:59:00.928Z,22.60
2019-05-17T08:01:37.821Z,18.92
2019-05-17T08:04:14.306Z,19.85
2019-05-17T08:06:50.943Z,21.17
2019-05-17T08:09:30.040Z,23.32
2019-05-17T08:12:06.243Z,23.00
2019-05-17T08:14:45.300Z,23.07
2019-05-17T08:17:22.115Z,26.07
2019-05-17T08:20:00.646Z,25.05
2019-05-17T08:22:39.557Z,27.58
2019-05-17T08:25:15.380Z,24.85
2019-05-17T08:27:52.181Z,31.93
2019-05-17T08:30:30.304Z,25.17
2019-05-17T08:33:10.453Z,24.27
2019-05-17T08:35:45.411Z,23.47
2019-05-17T08:38:21.864Z,27.17
2019-05-17T08:41:00.585Z,22.30
2019-05-17T08:43:45.816Z,28.95
2019-05-17T08:46:20.722Z,23.90
2019-05-17T08:48:57.093Z,27.30
2019-05-17T08:51:33.846Z,26.82
2019-05-17T08:54:10.541Z,27.05
2019-05-17T08:56:47.075Z,26.50
2019-05-17T08:59:23.849Z,24.92
2019-05-17T09:02:00.513Z,26.17
2019-05-17T09:04:37.147Z,26.80
2019-05-17T09:07:16.393Z,28.38
2019-05-17T09:09:52.850Z,27.37
2019-05-17T09:12:30.042Z,22.07
2019-05-17T09:15:06.623Z,28.12
2019-05-17T09:17:43.439Z,24.75
2019-05-17T09:20:20.493Z,24.60
2019-05-17T09:22:59.911Z,33.92
2019-05-17T09:25:35.512Z,30.55
2019-05-17T09:28:11.658Z,24.55
2019-05-17T09:30:50.536Z,28.00
2019-05-17T09:33:26.389Z,25.95
2019-05-17T09:36:03.229Z,30.60
2019-05-17T09:38:40.430Z,23.50
2019-05-17T09:41:17.122Z,31.62
2019-05-17T09:43:53.899Z,39.30
2019-05-17T09:46:30.462Z,42.58
2019-05-17T09:49:10.451Z,47.98
2019-05-17T09:51:46.314Z,38.17
2019-05-17T09:54:38.231Z,36.93
2019-05-17T09:57:01.101Z,38.92
2019-05-17T09:59:40.325Z,35.43
2019-05-17T10:02:15.788Z,36.33
2019-05-17T10:04:52.437Z,30.40
2019-05-17T10:07:29.816Z,28.83
2019-05-17T10:10:06.341Z,27.05
2019-05-17T10:12:44.029Z,27.45
2019-05-17T10:15:20.841Z,28.50
2019-05-17T10:18:00.403Z,33.70
2019-05-17T10:20:36.206Z,25.72
2019-05-17T10:23:12.754Z,32.85
2019-05-17T10:25:49.654Z,32.38
2019-05-17T10:28:26.429Z,31.73
2019-05-17T10:31:02.994Z,30.05
2019-05-17T10:33:40.102Z,38.45
2019-05-17T10:36:17.053Z,35.73
2019-05-17T10:38:53.528Z,34.18
2019-05-17T10:41:30.228Z,38.45
2019-05-17T10:44:06.678Z,32.53
2019-05-17T10:46:43.102Z,29.42
2019-05-17T10:49:20.263Z,27.80
2019-05-17T10:51:56.964Z,30.10
2019-05-17T10:54:33.759Z,27.62
2019-05-17T10:57:10.435Z,26.02
2019-05-17T10:59:49.757Z,26.57
2019-05-17T11:02:25.280Z,28.57
2019-05-17T11:05:01.729Z,29.72
2019-05-17T11:07:38.859Z,29.57
2019-05-17T11:10:16.091Z,27.58
2019-05-17T11:12:52.852Z,26.85
2019-05-17T11:15:29.199Z,27.07
2019-05-17T11:18:05.863Z,23.38
2019-05-17T11:20:43.107Z,23.92
2019-05-17T11:23:19.731Z,25.88
2019-05-17T11:25:56.751Z,25.82
2019-05-17T11:28:33.295Z,25.10
2019-05-17T11:31:10.153Z,29.18
2019-05-17T11:33:46.890Z,28.50
2019-05-17T11:36:23.223Z,25.20
2019-05-17T11:39:00.129Z,25.48
2019-05-17T11:41:36.500Z,26.45
2019-05-17T11:44:13.019Z,30.10
2019-05-17T11:46:49.664Z,28.10
2019-05-17T11:49:26.027Z,27.48
2019-05-17T11:52:03.670Z,30.43
2019-05-17T11:54:40.336Z,32.98
2019-05-17T11:57:17.109Z,30.62
2019-05-17T11:59:53.910Z,29.12
2019-05-17T12:02:30.531Z,29.92
2019-05-17T12:05:07.272Z,36.17
2019-05-17T12:07:43.593Z,29.18
2019-05-17T12:10:20.858Z,32.83
2019-05-17T12:12:57.271Z,29.87
2019-05-17T12:15:44.345Z,28.00
2019-05-17T12:18:11.667Z,33.50
2019-05-17T12:20:48.319Z,27.25
2019-05-17T12:23:24.652Z,45.45
2019-05-17T12:26:01.244Z,35.68
2019-05-17T12:28:37.917Z,40.15
2019-05-17T12:31:14.488Z,30.72
2019-05-17T12:33:51.207Z,32.78
2019-05-17T12:36:28.265Z,43.40
2019-05-17T12:39:04.618Z,28.05
2019-05-17T12:41:41.419Z,34.65
2019-05-17T12:44:17.995Z,30.12
2019-05-17T12:46:54.924Z,32.42
2019-05-17T12:49:31.419Z,38.98
2019-05-17T12:52:08.116Z,36.00
2019-05-17T12:54:45.059Z,34.88
2019-05-17T12:57:39.179Z,43.58
2019-05-17T13:00:17.088Z,33.95
2019-05-17T13:02:53.565Z,32.70
2019-05-17T13:05:29.846Z,37.03
2019-05-17T13:08:06.808Z,35.33
2019-05-17T13:10:43.570Z,39.30
2019-05-17T13:13:20.443Z,39.50
2019-05-17T13:15:57.375Z,33.30
2019-05-17T13:18:35.299Z,42.45
2019-05-17T13:21:11.832Z,37.13
2019-05-17T13:23:48.435Z,41.08
2019-05-17T13:26:25.140Z,40.08
2019-05-17T13:29:01.738Z,33.58
2019-05-17T13:31:38.719Z,34.83
2019-05-17T13:34:15.183Z,37.38
2019-05-17T13:36:51.872Z,39.75
2019-05-17T13:39:28.322Z,37.80
2019-05-17T13:42:05.097Z,40.98
2019-05-17T13:44:41.650Z,34.20
2019-05-17T13:47:17.668Z,35.00
2019-05-17T13:49:53.563Z,44.95
2019-05-17T13:52:29.754Z,54.73
2019-05-17T13:55:06.009Z,44.45
2019-05-17T13:57:42.495Z,48.48
2019-05-17T14:00:19.140Z,46.65
2019-05-17T14:02:55.569Z,40.58
2019-05-17T14:05:31.545Z,61.95
2019-05-17T14:08:07.990Z,39.42
2019-05-17T14:10:44.232Z,45.00
2019-05-17T14:13:20.740Z,54.75
2019-05-17T14:15:58.003Z,46.60
2019-05-17T14:18:34.901Z,46.18
2019-05-17T14:21:11.850Z,48.50
2019-05-17T14:23:49.362Z,40.83
2019-05-17T14:26:25.756Z,40.10
2019-05-17T14:29:02.357Z,49.90
2019-05-17T14:31:38.388Z,46.77
2019-05-17T14:34:15.019Z,46.40
2019-05-17T14:36:51.530Z,51.33
2019-05-17T14:39:28.245Z,41.58
2019-05-17T14:42:04.167Z,39.88
2019-05-17T14:44:40.763Z,44.53
2019-05-17T14:47:17.354Z,48.95
2019-05-17T14:49:54.262Z,45.15
2019-05-17T14:52:30.913Z,39.30
2019-05-17T14:55:07.642Z,41.48
2019-05-17T14:57:44.263Z,43.23
2019-05-17T15:00:21.077Z,42.13
2019-05-17T15:02:57.746Z,41.15
2019-05-17T15:05:33.771Z,45.92
2019-05-17T15:08:10.284Z,39.20
2019-05-17T15:10:47.566Z,36.35
2019-05-17T15:13:24.362Z,48.40
2019-05-17T15:16:00.890Z,38.90
2019-05-17T15:18:37.834Z,48.33
2019-05-17T15:21:14.736Z,48.33
2019-05-17T15:23:51.132Z,42.88
2019-05-17T15:26:28.671Z,42.08
2019-05-17T15:29:04.814Z,39.80
2019-05-17T15:31:41.535Z,49.73
2019-05-17T15:34:18.072Z,45.78
2019-05-17T15:36:55.102Z,40.48
2019-05-17T15:39:31.652Z,43.25
2019-05-17T15:42:08.463Z,47.15
2019-05-17T15:44:45.079Z,35.70
2019-05-17T15:47:21.622Z,40.05
2019-05-17T15:49:57.859Z,35.68
2019-05-17T15:52:34.794Z,43.05
2019-05-17T15:55:12.113Z,42.43
2019-05-17T15:57:48.470Z,36.55
2019-05-17T16:00:25.860Z,41.02
2019-05-17T16:03:02.223Z,54.95
2019-05-17T16:05:38.881Z,37.28
2019-05-17T16:08:15.779Z,42.65
2019-05-17T16:10:52.156Z,35.83
2019-05-17T16:13:28.648Z,39.95
2019-05-17T16:16:05.143Z,47.17
2019-05-17T16:18:41.818Z,35.35
2019-05-17T16:21:18.697Z,44.42
2019-05-17T16:23:55.291Z,42.45
2019-05-17T16:26:32.179Z,39.88
2019-05-17T16:29:09.060Z,40.17
2019-05-17T16:31:45.732Z,41.75
2019-05-17T16:34:22.228Z,34.33
2019-05-17T16:36:58.720Z,38.50
2019-05-17T16:39:35.134Z,40.75
2019-05-17T16:42:11.795Z,35.15
2019-05-17T16:44:48.291Z,39.80
2019-05-17T16:47:24.865Z,42.73
2019-05-17T16:50:02.546Z,37.08
2019-05-17T16:52:39.508Z,39.03
2019-05-17T16:55:16.815Z,39.45
2019-05-17T16:57:53.938Z,39.75
2019-05-17T17:00:35.993Z,38.00
2019-05-17T17:03:12.821Z,38.85
2019-05-17T17:05:49.320Z,41.65
2019-05-17T17:08:26.053Z,37.67
2019-05-17T17:11:02.881Z,37.75
2019-05-17T17:13:39.429Z,40.35
2019-05-17T17:16:16.350Z,40.15
2019-05-17T17:18:53.088Z,38.98
2019-05-17T17:21:29.758Z,42.60
2019-05-17T17:24:06.843Z,41.00
2019-05-17T17:26:43.502Z,41.45
2019-05-17T17:29:20.005Z,44.03
2019-05-17T17:31:56.719Z,33.88
2019-05-17T17:34:33.373Z,37.50
2019-05-17T17:37:09.940Z,37.88
2019-05-17T17:39:46.542Z,38.08
2019-05-17T17:42:23.430Z,35.05
2019-05-17T17:44:59.952Z,33.83
2019-05-17T17:47:36.608Z,42.25
2019-05-17T17:50:13.228Z,34.23
2019-05-17T17:52:52.037Z,40.17
2019-05-17T17:55:28.509Z,39.75
2019-05-17T17:58:05.326Z,35.20
2019-05-17T18:00:42.198Z,36.75
2019-05-17T18:03:20.031Z,37.17
2019-05-17T18:05:56.721Z,37.73
2019-05-17T18:08:34.726Z,32.70
2019-05-17T18:11:11.405Z,33.25
2019-05-17T18:13:48.115Z,37.58
2019-05-17T18:16:24.769Z,38.60
2019-05-17T18:19:01.621Z,33.20
2019-05-17T18:21:38.082Z,37.85
2019-05-17T18:24:14.705Z,37.73
2019-05-17T18:26:51.202Z,36.33
2019-05-17T18:29:28.121Z,34.30
2019-05-17T18:32:05.166Z,39.60
2019-05-17T18:34:42.969Z,35.78
2019-05-17T18:37:19.596Z,32.30
2019-05-17T18:39:55.952Z,33.48
2019-05-17T18:42:32.724Z,39.00
2019-05-17T18:45:09.783Z,29.40
2019-05-17T18:47:46.310Z,40.38
2019-05-17T18:50:22.695Z,38.95
2019-05-17T18:52:59.658Z,34.80
2019-05-17T18:55:36.481Z,32.50
2019-05-17T18:58:13.299Z,33.63
2019-05-17T19:00:50.735Z,32.98
2019-05-17T19:03:26.787Z,36.95
2019-05-17T19:06:03.381Z,35.35
2019-05-17T19:08:39.976Z,33.20
2019-05-17T19:11:16.344Z,41.08
2019-05-17T19:13:52.880Z,43.80
2019-05-17T19:16:29.403Z,39.73
2019-05-17T19:19:05.704Z,35.08
2019-05-17T19:21:42.366Z,35.00
2019-05-17T19:24:18.984Z,34.98
2019-05-17T19:26:55.327Z,37.28
2019-05-17T19:29:31.899Z,36.68
2019-05-17T19:32:08.336Z,39.18
2019-05-17T19:34:44.734Z,35.73
2019-05-17T19:37:21.174Z,35.08
2019-05-17T19:39:57.652Z,36.85
2019-05-17T19:42:34.545Z,33.85
2019-05-17T19:45:12.061Z,38.63
2019-05-17T19:47:48.516Z,38.98
2019-05-17T19:50:25.611Z,38.15
2019-05-17T19:53:02.406Z,37.30
2019-05-17T19:55:38.840Z,39.58
2019-05-17T19:58:15.172Z,34.55
2019-05-17T20:00:51.837Z,37.15
2019-05-17T20:03:29.838Z,35.23
2019-05-17T20:06:06.452Z,40.05
2019-05-17T20:08:43.223Z,33.75
2019-05-17T20:11:33.398Z,36.75
2019-05-17T20:13:57.744Z,32.88
2019-05-17T20:16:34.392Z,39.98
2019-05-17T20:19:10.869Z,38.00
2019-05-17T20:21:47.446Z,39.00
2019-05-17T20:24:24.241Z,34.48
2019-05-17T20:27:00.883Z,38.35
2019-05-17T20:29:37.310Z,36.25
2019-05-17T20:32:13.881Z,34.10
2019-05-17T20:34:50.163Z,42.62
2019-05-17T20:37:26.608Z,41.42
2019-05-17T20:40:04.994Z,37.28
2019-05-17T20:42:40.926Z,37.08
2019-05-17T20:45:32.025Z,35.40
2019-05-17T20:47:56.538Z,42.85
2019-05-17T20:50:33.166Z,38.42
2019-05-17T20:53:18.468Z,40.90
2019-05-17T20:55:48.695Z,41.28
2019-05-17T20:58:25.108Z,40.25
2019-05-17T21:01:02.069Z,36.10
2019-05-17T21:03:38.753Z,45.58
2019-05-17T21:06:15.135Z,35.08
2019-05-17T21:08:51.749Z,44.80
2019-05-17T21:11:28.120Z,41.30
2019-05-17T21:14:04.500Z,44.85
2019-05-17T21:16:40.736Z,43.70
2019-05-17T21:19:18.565Z,43.95
2019-05-17T21:21:54.963Z,43.17
2019-05-17T21:24:31.455Z,45.63
2019-05-17T21:27:08.258Z,44.77
2019-05-17T21:29:44.613Z,42.15
2019-05-17T21:32:21.306Z,47.75
2019-05-17T21:34:57.762Z,44.30
2019-05-17T21:37:34.284Z,43.40
2019-05-17T21:40:11.480Z,47.00
2019-05-17T21:42:48.506Z,41.28
2019-05-17T21:45:25.287Z,44.60
2019-05-17T21:48:02.230Z,43.75
2019-05-17T21:50:38.401Z,47.30
2019-05-17T21:53:14.843Z,41.33
2019-05-17T21:55:51.547Z,54.30
2019-05-17T21:58:28.156Z,45.67
2019-05-17T22:01:22.882Z,44.30
2019-05-17T22:03:59.539Z,44.15
2019-05-17T22:06:37.175Z,44.18
2019-05-17T22:09:15.630Z,50.48
2019-05-17T22:11:54.371Z,40.63
2019-05-17T22:14:30.713Z,47.53
2019-05-17T22:17:07.223Z,50.65
2019-05-17T22:19:44.059Z,48.48
2019-05-17T22:22:20.740Z,44.20
2019-05-17T22:24:57.713Z,49.83
2019-05-17T22:27:33.879Z,54.65
2019-05-17T22:30:10.780Z,66.15
2019-05-17T22:32:47.456Z,68.25
2019-05-17T22:35:24.224Z,60.63
2019-05-17T22:38:00.816Z,64.25
2019-05-17T22:40:37.448Z,59.83
2019-05-17T22:43:15.170Z,54.53
2019-05-17T22:45:51.451Z,52.55
2019-05-17T22:48:28.290Z,65.87
2019-05-17T22:51:04.743Z,55.95
2019-05-17T22:53:41.702Z,56.08
2019-05-17T22:56:18.060Z,49.65
2019-05-17T22:58:54.828Z,51.80
2019-05-17T23:01:33.008Z,48.38
2019-05-17T23:04:09.498Z,54.18
2019-05-17T23:06:46.347Z,59.27
2019-05-17T23:09:23.600Z,52.45
2019-05-17T23:12:00.222Z,53.73
2019-05-17T23:14:37.156Z,52.62
2019-05-17T23:17:13.613Z,51.88
2019-05-17T23:19:50.435Z,51.98
2019-05-17T23:22:27.335Z,49.98
2019-05-17T23:25:03.930Z,51.92
2019-05-17T23:27:40.805Z,53.25
2019-05-17T23:30:17.698Z,54.80
2019-05-17T23:32:54.453Z,55.45
2019-05-17T23:35:31.048Z,61.40
2019-05-17T23:38:07.946Z,49.58
2019-05-17T23:40:44.359Z,54.38
2019-05-17T23:43:21.268Z,54.40
2019-05-17T23:45:58.028Z,48.63
2019-05-17T23:48:34.560Z,47.13
2019-05-17T23:51:11.466Z,50.58
2019-05-17T23:53:48.162Z,57.15
2019-05-17T23:56:25.059Z,49.25
2019-05-17T23:59:01.342Z,44.85
